SBCP/CAW METAR and TAF weather

Enter ICAO airport designator
Station Type Date Time Source
SBCP METAR 2019/02/22 23:00 UTC NOAA

SBCP 222300Z 06008KT CAVOK 27/25 Q1014


Station Type Date Time Source
SBCP Decoded METAR 2019/02/22 23:00 UTC NOAA

Campos, Brazil (SBCP) 21-45S 041-20W 11M
Feb 22, 2019 - 06:00 PM EST / 2019.02.22 2300 UTC
Wind: from the ENE (060 degrees) at 9 MPH (8 KT):0
Visibility: greater than 7 mile(s):0
Temperature: 80 F (27 C)
Dew Point: 77 F (25 C)
Relative Humidity: 88%
Pressure (altimeter): 29.94 in. Hg (1014 hPa)
ob: SBCP 222300Z 06008KT CAVOK 27/25 Q1014
cycle: 23

Station Type Date Time Source
SBCP TAF 2019/02/23 00:00 UTC NOAA

TAF SBCP 222100Z 2300/2312 02003KT 9999 FEW030 TN25/2308Z TX31/2312Z
RMK PGU


Example: see airport list